sensor_id;sensor_type;location;lat;lon;timestamp;P1;durP1;ratioP1;P2;durP2;ratioP2
13588;SDS011;6865;52.552;13.434;2022-09-30T00:01:13;7.97;;;7.10;;
13588;SDS011;6865;52.552;13.434;2022-09-30T00:03:40;8.03;;;7.13;;
13588;SDS011;6865;52.552;13.434;2022-09-30T00:06:06;9.33;;;7.20;;
13588;SDS011;6865;52.552;13.434;2022-09-30T00:08:35;8.67;;;7.17;;
13588;SDS011;6865;52.552;13.434;2022-09-30T00:11:07;9.40;;;6.83;;
13588;SDS011;6865;52.552;13.434;2022-09-30T00:13:37;8.53;;;7.10;;
13588;SDS011;6865;52.552;13.434;2022-09-30T00:16:05;8.87;;;7.13;;
13588;SDS011;6865;52.552;13.434;2022-09-30T00:18:32;7.90;;;7.10;;
13588;SDS011;6865;52.552;13.434;2022-09-30T00:20:59;9.43;;;7.73;;
13588;SDS011;6865;52.552;13.434;2022-09-30T00:23:27;9.70;;;7.03;;
13588;SDS011;6865;52.552;13.434;2022-09-30T00:25:57;8.53;;;6.83;;
13588;SDS011;6865;52.552;13.434;2022-09-30T00:28:29;8.60;;;6.90;;
13588;SDS011;6865;52.552;13.434;2022-09-30T00:31:03;8.67;;;7.33;;
13588;SDS011;6865;52.552;13.434;2022-09-30T00:33:33;9.00;;;7.33;;
13588;SDS011;6865;52.552;13.434;2022-09-30T00:36:00;10.70;;;7.50;;
13588;SDS011;6865;52.552;13.434;2022-09-30T00:38:27;10.50;;;7.57;;
13588;SDS011;6865;52.552;13.434;2022-09-30T00:40:55;9.93;;;7.40;;
13588;SDS011;6865;52.552;13.434;2022-09-30T00:43:39;9.63;;;7.93;;
13588;SDS011;6865;52.552;13.434;2022-09-30T00:46:18;9.40;;;7.17;;
13588;SDS011;6865;52.552;13.434;2022-09-30T00:48:51;7.63;;;6.77;;
13588;SDS011;6865;52.552;13.434;2022-09-30T00:51:26;11.93;;;7.80;;
13588;SDS011;6865;52.552;13.434;2022-09-30T00:54:06;9.43;;;7.33;;
13588;SDS011;6865;52.552;13.434;2022-09-30T00:56:38;9.40;;;7.43;;
13588;SDS011;6865;52.552;13.434;2022-09-30T00:59:09;10.47;;;7.13;;
13588;SDS011;6865;52.552;13.434;2022-09-30T01:01:43;9.27;;;7.50;;
13588;SDS011;6865;52.552;13.434;2022-09-30T01:04:10;9.17;;;7.10;;
13588;SDS011;6865;52.552;13.434;2022-09-30T01:06:42;10.13;;;7.23;;
13588;SDS011;6865;52.552;13.434;2022-09-30T01:09:09;9.67;;;7.60;;
13588;SDS011;6865;52.552;13.434;2022-09-30T01:11:36;9.80;;;7.53;;
13588;SDS011;6865;52.552;13.434;2022-09-30T01:14:14;8.27;;;7.17;;
13588;SDS011;6865;52.552;13.434;2022-09-30T01:19:41;10.73;;;7.60;;
13588;SDS011;6865;52.552;13.434;2022-09-30T01:22:26;9.00;;;7.10;;
13588;SDS011;6865;52.552;13.434;2022-09-30T01:25:26;11.20;;;7.57;;
13588;SDS011;6865;52.552;13.434;2022-09-30T01:33:56;9.30;;;6.90;;
13588;SDS011;6865;52.552;13.434;2022-09-30T01:36:41;9.43;;;7.60;;
13588;SDS011;6865;52.552;13.434;2022-09-30T01:42:09;8.07;;;6.93;;
13588;SDS011;6865;52.552;13.434;2022-09-30T01:52:51;11.13;;;7.03;;
13588;SDS011;6865;52.552;13.434;2022-09-30T01:55:30;8.33;;;7.27;;
13588;SDS011;6865;52.552;13.434;2022-09-30T01:58:04;9.60;;;7.20;;
13588;SDS011;6865;52.552;13.434;2022-09-30T02:00:52;9.23;;;6.60;;
13588;SDS011;6865;52.552;13.434;2022-09-30T02:03:32;9.40;;;7.10;;
13588;SDS011;6865;52.552;13.434;2022-09-30T02:06:05;8.70;;;6.97;;
13588;SDS011;6865;52.552;13.434;2022-09-30T02:08:43;8.30;;;6.93;;
13588;SDS011;6865;52.552;13.434;2022-09-30T02:11:29;8.73;;;7.07;;
13588;SDS011;6865;52.552;13.434;2022-09-30T02:14:22;9.00;;;7.27;;
13588;SDS011;6865;52.552;13.434;2022-09-30T02:16:47;8.10;;;6.97;;
13588;SDS011;6865;52.552;13.434;2022-09-30T02:19:22;8.50;;;6.97;;
13588;SDS011;6865;52.552;13.434;2022-09-30T02:21:57;9.13;;;7.00;;
13588;SDS011;6865;52.552;13.434;2022-09-30T02:24:27;8.17;;;7.07;;
13588;SDS011;6865;52.552;13.434;2022-09-30T02:27:00;9.23;;;7.47;;
13588;SDS011;6865;52.552;13.434;2022-09-30T02:29:33;12.20;;;7.53;;
13588;SDS011;6865;52.552;13.434;2022-09-30T02:32:05;8.33;;;7.37;;
13588;SDS011;6865;52.552;13.434;2022-09-30T02:34:39;8.70;;;7.07;;
13588;SDS011;6865;52.552;13.434;2022-09-30T02:37:18;9.43;;;7.03;;
13588;SDS011;6865;52.552;13.434;2022-09-30T02:39:51;11.30;;;7.20;;
13588;SDS011;6865;52.552;13.434;2022-09-30T02:42:36;9.77;;;7.20;;
13588;SDS011;6865;52.552;13.434;2022-09-30T02:45:05;10.03;;;7.77;;
13588;SDS011;6865;52.552;13.434;2022-09-30T02:50:34;9.80;;;7.33;;
13588;SDS011;6865;52.552;13.434;2022-09-30T02:53:12;9.17;;;7.07;;
13588;SDS011;6865;52.552;13.434;2022-09-30T02:55:53;10.30;;;7.47;;
13588;SDS011;6865;52.552;13.434;2022-09-30T02:58:31;11.27;;;7.60;;
13588;SDS011;6865;52.552;13.434;2022-09-30T03:01:01;10.30;;;7.80;;
13588;SDS011;6865;52.552;13.434;2022-09-30T03:03:31;8.37;;;6.93;;
13588;SDS011;6865;52.552;13.434;2022-09-30T03:06:02;8.53;;;6.63;;
13588;SDS011;6865;52.552;13.434;2022-09-30T03:08:29;10.20;;;8.03;;
13588;SDS011;6865;52.552;13.434;2022-09-30T03:10:55;10.63;;;7.40;;
13588;SDS011;6865;52.552;13.434;2022-09-30T03:13:41;10.37;;;7.77;;
13588;SDS011;6865;52.552;13.434;2022-09-30T03:19:18;8.50;;;7.10;;
13588;SDS011;6865;52.552;13.434;2022-09-30T03:25:04;9.10;;;7.43;;
13588;SDS011;6865;52.552;13.434;2022-09-30T03:30:33;9.90;;;7.10;;
13588;SDS011;6865;52.552;13.434;2022-09-30T03:33:12;10.10;;;7.10;;
13588;SDS011;6865;52.552;13.434;2022-09-30T03:41:16;9.57;;;7.30;;
13588;SDS011;6865;52.552;13.434;2022-09-30T03:46:54;7.73;;;6.93;;
13588;SDS011;6865;52.552;13.434;2022-09-30T03:49:27;8.90;;;7.80;;
13588;SDS011;6865;52.552;13.434;2022-09-30T03:51:58;9.83;;;7.20;;
13588;SDS011;6865;52.552;13.434;2022-09-30T03:54:29;10.13;;;7.60;;
13588;SDS011;6865;52.552;13.434;2022-09-30T03:56:56;10.87;;;7.43;;
13588;SDS011;6865;52.552;13.434;2022-09-30T03:59:24;9.13;;;7.90;;
13588;SDS011;6865;52.552;13.434;2022-09-30T04:01:53;10.13;;;7.77;;
13588;SDS011;6865;52.552;13.434;2022-09-30T04:04:20;8.73;;;6.93;;
13588;SDS011;6865;52.552;13.434;2022-09-30T04:06:46;8.13;;;7.20;;
13588;SDS011;6865;52.552;13.434;2022-09-30T04:09:13;8.33;;;7.20;;
13588;SDS011;6865;52.552;13.434;2022-09-30T04:11:39;8.67;;;7.33;;
13588;SDS011;6865;52.552;13.434;2022-09-30T04:14:06;10.20;;;8.17;;
13588;SDS011;6865;52.552;13.434;2022-09-30T04:16:33;9.13;;;7.27;;
13588;SDS011;6865;52.552;13.434;2022-09-30T04:19:00;10.13;;;7.97;;
13588;SDS011;6865;52.552;13.434;2022-09-30T04:21:26;10.23;;;7.47;;
13588;SDS011;6865;52.552;13.434;2022-09-30T04:23:54;8.80;;;7.77;;
13588;SDS011;6865;52.552;13.434;2022-09-30T04:26:21;9.67;;;7.47;;
13588;SDS011;6865;52.552;13.434;2022-09-30T04:28:48;11.80;;;8.07;;
13588;SDS011;6865;52.552;13.434;2022-09-30T04:31:14;11.00;;;7.83;;
13588;SDS011;6865;52.552;13.434;2022-09-30T04:33:46;10.43;;;8.03;;
13588;SDS011;6865;52.552;13.434;2022-09-30T04:36:13;8.57;;;7.63;;
13588;SDS011;6865;52.552;13.434;2022-09-30T04:38:39;9.03;;;7.40;;
13588;SDS011;6865;52.552;13.434;2022-09-30T04:41:06;13.73;;;7.80;;
13588;SDS011;6865;52.552;13.434;2022-09-30T04:43:35;11.57;;;7.67;;
13588;SDS011;6865;52.552;13.434;2022-09-30T04:46:02;9.00;;;7.40;;
13588;SDS011;6865;52.552;13.434;2022-09-30T04:48:28;10.10;;;8.13;;
13588;SDS011;6865;52.552;13.434;2022-09-30T04:50:56;8.97;;;7.83;;
13588;SDS011;6865;52.552;13.434;2022-09-30T04:53:24;9.37;;;7.67;;
13588;SDS011;6865;52.552;13.434;2022-09-30T04:55:56;10.43;;;8.03;;
13588;SDS011;6865;52.552;13.434;2022-09-30T04:58:24;9.13;;;7.33;;
13588;SDS011;6865;52.552;13.434;2022-09-30T05:00:51;9.03;;;7.60;;
13588;SDS011;6865;52.552;13.434;2022-09-30T05:03:24;9.13;;;7.80;;
13588;SDS011;6865;52.552;13.434;2022-09-30T05:05:51;10.20;;;7.53;;
13588;SDS011;6865;52.552;13.434;2022-09-30T05:08:17;10.87;;;8.57;;
13588;SDS011;6865;52.552;13.434;2022-09-30T05:10:51;10.13;;;7.93;;
13588;SDS011;6865;52.552;13.434;2022-09-30T05:13:38;10.87;;;8.97;;
13588;SDS011;6865;52.552;13.434;2022-09-30T05:16:07;13.07;;;10.03;;
13588;SDS011;6865;52.552;13.434;2022-09-30T05:18:35;12.33;;;9.33;;
13588;SDS011;6865;52.552;13.434;2022-09-30T05:21:01;11.80;;;9.23;;
13588;SDS011;6865;52.552;13.434;2022-09-30T05:23:29;9.80;;;8.27;;
13588;SDS011;6865;52.552;13.434;2022-09-30T05:25:57;12.20;;;9.17;;
13588;SDS011;6865;52.552;13.434;2022-09-30T05:28:24;13.53;;;8.80;;
13588;SDS011;6865;52.552;13.434;2022-09-30T05:30:55;11.30;;;8.57;;
13588;SDS011;6865;52.552;13.434;2022-09-30T05:33:24;12.83;;;8.60;;
13588;SDS011;6865;52.552;13.434;2022-09-30T05:35:52;10.00;;;8.57;;
13588;SDS011;6865;52.552;13.434;2022-09-30T05:38:19;11.23;;;8.90;;
13588;SDS011;6865;52.552;13.434;2022-09-30T05:40:46;11.07;;;8.63;;
13588;SDS011;6865;52.552;13.434;2022-09-30T05:43:16;11.27;;;8.63;;
13588;SDS011;6865;52.552;13.434;2022-09-30T05:45:50;10.00;;;8.90;;
13588;SDS011;6865;52.552;13.434;2022-09-30T05:48:18;13.33;;;9.37;;
13588;SDS011;6865;52.552;13.434;2022-09-30T05:50:45;12.77;;;9.33;;
13588;SDS011;6865;52.552;13.434;2022-09-30T05:53:18;11.47;;;9.10;;
13588;SDS011;6865;52.552;13.434;2022-09-30T05:55:45;10.83;;;8.53;;
13588;SDS011;6865;52.552;13.434;2022-09-30T05:58:13;12.53;;;9.20;;
13588;SDS011;6865;52.552;13.434;2022-09-30T06:00:40;12.27;;;9.40;;
13588;SDS011;6865;52.552;13.434;2022-09-30T06:03:08;12.20;;;9.17;;
13588;SDS011;6865;52.552;13.434;2022-09-30T06:05:35;11.97;;;8.63;;
13588;SDS011;6865;52.552;13.434;2022-09-30T06:08:02;10.87;;;9.23;;
13588;SDS011;6865;52.552;13.434;2022-09-30T06:10:29;12.40;;;9.90;;
13588;SDS011;6865;52.552;13.434;2022-09-30T06:12:56;13.37;;;9.63;;
13588;SDS011;6865;52.552;13.434;2022-09-30T06:15:24;11.97;;;9.50;;
13588;SDS011;6865;52.552;13.434;2022-09-30T06:17:52;12.43;;;9.87;;
13588;SDS011;6865;52.552;13.434;2022-09-30T06:20:19;13.63;;;10.67;;
13588;SDS011;6865;52.552;13.434;2022-09-30T06:22:46;15.37;;;10.00;;
13588;SDS011;6865;52.552;13.434;2022-09-30T06:25:12;13.33;;;9.90;;
13588;SDS011;6865;52.552;13.434;2022-09-30T06:27:42;12.53;;;9.53;;
13588;SDS011;6865;52.552;13.434;2022-09-30T06:30:10;12.33;;;9.57;;
13588;SDS011;6865;52.552;13.434;2022-09-30T06:32:37;11.37;;;8.73;;
13588;SDS011;6865;52.552;13.434;2022-09-30T06:35:04;13.23;;;9.60;;
13588;SDS011;6865;52.552;13.434;2022-09-30T06:37:31;9.97;;;8.93;;
13588;SDS011;6865;52.552;13.434;2022-09-30T06:39:57;10.97;;;9.20;;
13588;SDS011;6865;52.552;13.434;2022-09-30T06:42:24;11.57;;;9.33;;
13588;SDS011;6865;52.552;13.434;2022-09-30T06:44:50;13.03;;;8.90;;
13588;SDS011;6865;52.552;13.434;2022-09-30T06:47:19;11.47;;;8.73;;
13588;SDS011;6865;52.552;13.434;2022-09-30T06:49:51;10.37;;;8.17;;
13588;SDS011;6865;52.552;13.434;2022-09-30T06:52:24;9.80;;;7.67;;
13588;SDS011;6865;52.552;13.434;2022-09-30T06:54:52;10.17;;;7.60;;
13588;SDS011;6865;52.552;13.434;2022-09-30T06:57:22;9.83;;;7.70;;
13588;SDS011;6865;52.552;13.434;2022-09-30T06:59:49;11.10;;;7.80;;
13588;SDS011;6865;52.552;13.434;2022-09-30T07:02:16;10.43;;;8.07;;
13588;SDS011;6865;52.552;13.434;2022-09-30T07:04:43;11.00;;;8.97;;
13588;SDS011;6865;52.552;13.434;2022-09-30T07:07:10;11.77;;;8.63;;
13588;SDS011;6865;52.552;13.434;2022-09-30T07:09:37;11.07;;;8.10;;
13588;SDS011;6865;52.552;13.434;2022-09-30T07:12:03;11.33;;;9.10;;
13588;SDS011;6865;52.552;13.434;2022-09-30T07:14:32;13.50;;;8.70;;
13588;SDS011;6865;52.552;13.434;2022-09-30T07:17:02;11.40;;;8.57;;
13588;SDS011;6865;52.552;13.434;2022-09-30T07:19:30;15.43;;;9.40;;
13588;SDS011;6865;52.552;13.434;2022-09-30T07:21:59;11.47;;;8.83;;
13588;SDS011;6865;52.552;13.434;2022-09-30T07:24:50;15.00;;;9.20;;
13588;SDS011;6865;52.552;13.434;2022-09-30T07:27:17;11.40;;;9.23;;
13588;SDS011;6865;52.552;13.434;2022-09-30T07:29:44;11.23;;;9.27;;
13588;SDS011;6865;52.552;13.434;2022-09-30T07:32:30;13.27;;;9.33;;
13588;SDS011;6865;52.552;13.434;2022-09-30T07:34:57;10.33;;;9.20;;
13588;SDS011;6865;52.552;13.434;2022-09-30T07:37:24;12.23;;;8.87;;
13588;SDS011;6865;52.552;13.434;2022-09-30T07:39:51;11.63;;;9.57;;
13588;SDS011;6865;52.552;13.434;2022-09-30T07:42:19;13.97;;;9.47;;
13588;SDS011;6865;52.552;13.434;2022-09-30T07:44:48;12.13;;;9.40;;
13588;SDS011;6865;52.552;13.434;2022-09-30T07:47:17;13.87;;;9.50;;
13588;SDS011;6865;52.552;13.434;2022-09-30T07:49:45;16.20;;;12.07;;
13588;SDS011;6865;52.552;13.434;2022-09-30T07:52:12;13.73;;;9.33;;
13588;SDS011;6865;52.552;13.434;2022-09-30T07:54:40;14.10;;;11.13;;
13588;SDS011;6865;52.552;13.434;2022-09-30T07:57:15;14.33;;;10.70;;
13588;SDS011;6865;52.552;13.434;2022-09-30T07:59:42;13.83;;;10.70;;
13588;SDS011;6865;52.552;13.434;2022-09-30T08:02:15;16.90;;;10.37;;
13588;SDS011;6865;52.552;13.434;2022-09-30T08:04:43;18.20;;;10.87;;
13588;SDS011;6865;52.552;13.434;2022-09-30T08:07:11;14.23;;;9.60;;
13588;SDS011;6865;52.552;13.434;2022-09-30T08:09:41;14.50;;;9.97;;
13588;SDS011;6865;52.552;13.434;2022-09-30T08:12:08;18.83;;;11.33;;
13588;SDS011;6865;52.552;13.434;2022-09-30T08:14:34;12.83;;;10.03;;
13588;SDS011;6865;52.552;13.434;2022-09-30T08:17:01;12.67;;;9.23;;
13588;SDS011;6865;52.552;13.434;2022-09-30T08:19:28;13.37;;;9.93;;
13588;SDS011;6865;52.552;13.434;2022-09-30T08:21:56;18.53;;;11.23;;
13588;SDS011;6865;52.552;13.434;2022-09-30T08:24:23;17.33;;;10.47;;
13588;SDS011;6865;52.552;13.434;2022-09-30T08:26:52;16.70;;;10.67;;
13588;SDS011;6865;52.552;13.434;2022-09-30T08:29:19;13.17;;;10.17;;
13588;SDS011;6865;52.552;13.434;2022-09-30T08:32:06;14.30;;;9.97;;
13588;SDS011;6865;52.552;13.434;2022-09-30T08:34:32;11.67;;;9.17;;
13588;SDS011;6865;52.552;13.434;2022-09-30T08:37:01;13.20;;;10.63;;
13588;SDS011;6865;52.552;13.434;2022-09-30T08:39:34;14.53;;;9.80;;
13588;SDS011;6865;52.552;13.434;2022-09-30T08:42:07;14.60;;;10.30;;
13588;SDS011;6865;52.552;13.434;2022-09-30T08:45:06;14.37;;;10.03;;
13588;SDS011;6865;52.552;13.434;2022-09-30T08:48:01;12.83;;;9.90;;
13588;SDS011;6865;52.552;13.434;2022-09-30T08:50:52;11.47;;;9.37;;
13588;SDS011;6865;52.552;13.434;2022-09-30T08:53:33;13.67;;;10.17;;
13588;SDS011;6865;52.552;13.434;2022-09-30T08:56:02;12.47;;;10.30;;
13588;SDS011;6865;52.552;13.434;2022-09-30T08:58:31;13.63;;;9.93;;
13588;SDS011;6865;52.552;13.434;2022-09-30T09:01:03;15.83;;;10.27;;
13588;SDS011;6865;52.552;13.434;2022-09-30T09:03:51;13.73;;;10.57;;
13588;SDS011;6865;52.552;13.434;2022-09-30T09:06:30;14.33;;;10.20;;
13588;SDS011;6865;52.552;13.434;2022-09-30T09:09:29;15.47;;;10.40;;
13588;SDS011;6865;52.552;13.434;2022-09-30T09:17:52;12.97;;;9.30;;
13588;SDS011;6865;52.552;13.434;2022-09-30T09:23:23;14.67;;;9.83;;
13588;SDS011;6865;52.552;13.434;2022-09-30T09:25:51;12.03;;;10.20;;
13588;SDS011;6865;52.552;13.434;2022-09-30T09:28:30;11.57;;;9.60;;
13588;SDS011;6865;52.552;13.434;2022-09-30T09:31:13;14.37;;;9.63;;
13588;SDS011;6865;52.552;13.434;2022-09-30T09:33:42;12.67;;;9.57;;
13588;SDS011;6865;52.552;13.434;2022-09-30T09:36:19;9.57;;;8.57;;
13588;SDS011;6865;52.552;13.434;2022-09-30T09:44:39;11.53;;;8.53;;
13588;SDS011;6865;52.552;13.434;2022-09-30T09:47:20;10.23;;;7.90;;
13588;SDS011;6865;52.552;13.434;2022-09-30T09:49:57;10.43;;;7.87;;
13588;SDS011;6865;52.552;13.434;2022-09-30T09:52:29;11.80;;;8.00;;
13588;SDS011;6865;52.552;13.434;2022-09-30T09:55:22;9.83;;;7.87;;
13588;SDS011;6865;52.552;13.434;2022-09-30T09:58:32;11.57;;;8.37;;
13588;SDS011;6865;52.552;13.434;2022-09-30T10:00:40;9.67;;;7.30;;
13588;SDS011;6865;52.552;13.434;2022-09-30T10:03:34;8.90;;;7.13;;
13588;SDS011;6865;52.552;13.434;2022-09-30T10:06:05;8.10;;;7.30;;
13588;SDS011;6865;52.552;13.434;2022-09-30T10:08:37;8.27;;;7.40;;
13588;SDS011;6865;52.552;13.434;2022-09-30T10:11:19;7.70;;;6.40;;
13588;SDS011;6865;52.552;13.434;2022-09-30T10:13:48;8.83;;;7.40;;
13588;SDS011;6865;52.552;13.434;2022-09-30T10:19:00;9.33;;;7.00;;
13588;SDS011;6865;52.552;13.434;2022-09-30T10:21:43;7.73;;;6.57;;
13588;SDS011;6865;52.552;13.434;2022-09-30T10:26:53;8.33;;;6.57;;
13588;SDS011;6865;52.552;13.434;2022-09-30T10:29:26;7.87;;;6.43;;
13588;SDS011;6865;52.552;13.434;2022-09-30T10:31:54;6.80;;;6.13;;
13588;SDS011;6865;52.552;13.434;2022-09-30T10:34:37;8.17;;;5.90;;
13588;SDS011;6865;52.552;13.434;2022-09-30T10:37:16;6.07;;;5.47;;
13588;SDS011;6865;52.552;13.434;2022-09-30T10:39:52;9.57;;;6.10;;
13588;SDS011;6865;52.552;13.434;2022-09-30T10:42:24;7.30;;;5.63;;
13588;SDS011;6865;52.552;13.434;2022-09-30T10:44:54;10.07;;;6.07;;
13588;SDS011;6865;52.552;13.434;2022-09-30T10:47:23;7.90;;;6.23;;
13588;SDS011;6865;52.552;13.434;2022-09-30T10:50:09;7.80;;;6.40;;
13588;SDS011;6865;52.552;13.434;2022-09-30T10:52:39;8.35;;;6.78;;
13588;SDS011;6865;52.552;13.434;2022-09-30T10:57:45;6.77;;;4.90;;
13588;SDS011;6865;52.552;13.434;2022-09-30T11:00:13;6.33;;;5.73;;
13588;SDS011;6865;52.552;13.434;2022-09-30T11:02:52;7.43;;;5.80;;
13588;SDS011;6865;52.552;13.434;2022-09-30T11:08:15;6.73;;;4.77;;
13588;SDS011;6865;52.552;13.434;2022-09-30T11:11:06;7.25;;;4.72;;
13588;SDS011;6865;52.552;13.434;2022-09-30T11:13:47;5.37;;;4.10;;
13588;SDS011;6865;52.552;13.434;2022-09-30T11:16:46;6.17;;;4.77;;
13588;SDS011;6865;52.552;13.434;2022-09-30T11:19:40;5.67;;;4.60;;
13588;SDS011;6865;52.552;13.434;2022-09-30T11:22:31;4.90;;;4.40;;
13588;SDS011;6865;52.552;13.434;2022-09-30T11:25:16;4.53;;;3.97;;
13588;SDS011;6865;52.552;13.434;2022-09-30T11:27:55;6.07;;;3.40;;
13588;SDS011;6865;52.552;13.434;2022-09-30T11:30:46;5.07;;;3.07;;
13588;SDS011;6865;52.552;13.434;2022-09-30T11:33:24;4.32;;;3.17;;
13588;SDS011;6865;52.552;13.434;2022-09-30T11:36:11;4.00;;;3.13;;
13588;SDS011;6865;52.552;13.434;2022-09-30T11:39:01;3.90;;;2.73;;
13588;SDS011;6865;52.552;13.434;2022-09-30T11:41:54;4.82;;;3.15;;
13588;SDS011;6865;52.552;13.434;2022-09-30T11:44:34;4.43;;;3.05;;
13588;SDS011;6865;52.552;13.434;2022-09-30T11:47:07;3.30;;;2.63;;
13588;SDS011;6865;52.552;13.434;2022-09-30T11:49:56;3.95;;;2.58;;
13588;SDS011;6865;52.552;13.434;2022-09-30T11:52:54;4.10;;;2.47;;
13588;SDS011;6865;52.552;13.434;2022-09-30T11:55:42;4.33;;;3.10;;
13588;SDS011;6865;52.552;13.434;2022-09-30T11:58:33;6.50;;;3.45;;
13588;SDS011;6865;52.552;13.434;2022-09-30T12:04:03;3.60;;;3.00;;
13588;SDS011;6865;52.552;13.434;2022-09-30T12:06:37;5.30;;;3.17;;
13588;SDS011;6865;52.552;13.434;2022-09-30T12:09:23;4.78;;;3.13;;
13588;SDS011;6865;52.552;13.434;2022-09-30T12:11:54;5.80;;;4.32;;
13588;SDS011;6865;52.552;13.434;2022-09-30T12:14:27;4.53;;;2.97;;
13588;SDS011;6865;52.552;13.434;2022-09-30T12:16:59;4.88;;;3.08;;
13588;SDS011;6865;52.552;13.434;2022-09-30T12:19:32;4.38;;;2.72;;
13588;SDS011;6865;52.552;13.434;2022-09-30T12:22:13;4.13;;;2.78;;
13588;SDS011;6865;52.552;13.434;2022-09-30T12:24:45;3.28;;;2.58;;
13588;SDS011;6865;52.552;13.434;2022-09-30T12:27:18;3.63;;;3.25;;
13588;SDS011;6865;52.552;13.434;2022-09-30T12:30:00;4.10;;;2.80;;
13588;SDS011;6865;52.552;13.434;2022-09-30T12:32:53;5.35;;;3.20;;
13588;SDS011;6865;52.552;13.434;2022-09-30T12:35:41;3.15;;;2.70;;
13588;SDS011;6865;52.552;13.434;2022-09-30T12:47:31;3.05;;;2.58;;
13588;SDS011;6865;52.552;13.434;2022-09-30T12:50:04;3.85;;;2.60;;
13588;SDS011;6865;52.552;13.434;2022-09-30T12:52:34;3.53;;;2.50;;
13588;SDS011;6865;52.552;13.434;2022-09-30T12:55:04;3.70;;;2.20;;
13588;SDS011;6865;52.552;13.434;2022-09-30T12:57:56;5.40;;;2.38;;
13588;SDS011;6865;52.552;13.434;2022-09-30T13:00:27;3.35;;;3.03;;
13588;SDS011;6865;52.552;13.434;2022-09-30T13:03:07;3.47;;;2.45;;
13588;SDS011;6865;52.552;13.434;2022-09-30T13:10:58;2.45;;;1.95;;
13588;SDS011;6865;52.552;13.434;2022-09-30T13:13:29;3.50;;;2.03;;
13588;SDS011;6865;52.552;13.434;2022-09-30T13:15:59;2.70;;;2.28;;
13588;SDS011;6865;52.552;13.434;2022-09-30T13:23:34;10.10;;;2.67;;
13588;SDS011;6865;52.552;13.434;2022-09-30T13:31:28;2.97;;;2.25;;
13588;SDS011;6865;52.552;13.434;2022-09-30T13:34:22;2.95;;;2.40;;
13588;SDS011;6865;52.552;13.434;2022-09-30T13:36:57;2.83;;;2.10;;
13588;SDS011;6865;52.552;13.434;2022-09-30T13:39:42;5.82;;;2.00;;
13588;SDS011;6865;52.552;13.434;2022-09-30T13:42:26;3.58;;;2.20;;
13588;SDS011;6865;52.552;13.434;2022-09-30T13:45:16;2.63;;;2.10;;
13588;SDS011;6865;52.552;13.434;2022-09-30T13:50:45;3.40;;;2.40;;
13588;SDS011;6865;52.552;13.434;2022-09-30T13:53:22;2.85;;;2.00;;
13588;SDS011;6865;52.552;13.434;2022-09-30T13:55:54;4.57;;;2.13;;
13588;SDS011;6865;52.552;13.434;2022-09-30T13:58:44;2.45;;;2.00;;
13588;SDS011;6865;52.552;13.434;2022-09-30T14:07:12;4.68;;;2.00;;
13588;SDS011;6865;52.552;13.434;2022-09-30T14:15:57;2.72;;;1.80;;
13588;SDS011;6865;52.552;13.434;2022-09-30T14:18:45;3.72;;;2.40;;
13588;SDS011;6865;52.552;13.434;2022-09-30T14:21:32;6.60;;;2.60;;
13588;SDS011;6865;52.552;13.434;2022-09-30T14:24:02;5.68;;;2.15;;
13588;SDS011;6865;52.552;13.434;2022-09-30T14:26:45;4.10;;;2.80;;
13588;SDS011;6865;52.552;13.434;2022-09-30T14:29:28;3.45;;;2.30;;
13588;SDS011;6865;52.552;13.434;2022-09-30T14:35:05;2.45;;;1.90;;
13588;SDS011;6865;52.552;13.434;2022-09-30T14:37:38;3.28;;;1.80;;
13588;SDS011;6865;52.552;13.434;2022-09-30T14:40:09;4.25;;;2.10;;
13588;SDS011;6865;52.552;13.434;2022-09-30T14:42:41;3.50;;;1.70;;
13588;SDS011;6865;52.552;13.434;2022-09-30T14:45:16;3.17;;;1.55;;
13588;SDS011;6865;52.552;13.434;2022-09-30T14:47:53;3.10;;;1.75;;
13588;SDS011;6865;52.552;13.434;2022-09-30T14:50:28;2.53;;;1.80;;
13588;SDS011;6865;52.552;13.434;2022-09-30T14:53:00;2.42;;;1.70;;
13588;SDS011;6865;52.552;13.434;2022-09-30T14:55:30;7.53;;;2.85;;
13588;SDS011;6865;52.552;13.434;2022-09-30T15:00:49;3.47;;;1.63;;
13588;SDS011;6865;52.552;13.434;2022-09-30T15:03:24;2.88;;;2.13;;
13588;SDS011;6865;52.552;13.434;2022-09-30T15:05:52;4.68;;;2.10;;
13588;SDS011;6865;52.552;13.434;2022-09-30T15:08:20;3.03;;;2.10;;
13588;SDS011;6865;52.552;13.434;2022-09-30T15:10:48;5.55;;;2.70;;
13588;SDS011;6865;52.552;13.434;2022-09-30T15:13:17;2.97;;;2.03;;
13588;SDS011;6865;52.552;13.434;2022-09-30T15:15:47;2.22;;;1.80;;
13588;SDS011;6865;52.552;13.434;2022-09-30T15:18:24;3.95;;;1.85;;
13588;SDS011;6865;52.552;13.434;2022-09-30T15:20:54;3.95;;;1.80;;
13588;SDS011;6865;52.552;13.434;2022-09-30T15:23:25;3.90;;;2.00;;
13588;SDS011;6865;52.552;13.434;2022-09-30T15:25:54;2.95;;;1.88;;
13588;SDS011;6865;52.552;13.434;2022-09-30T15:28:22;4.70;;;3.38;;
13588;SDS011;6865;52.552;13.434;2022-09-30T15:30:49;3.47;;;1.92;;
13588;SDS011;6865;52.552;13.434;2022-09-30T15:33:20;4.93;;;2.40;;
13588;SDS011;6865;52.552;13.434;2022-09-30T15:36:06;2.17;;;1.95;;
13588;SDS011;6865;52.552;13.434;2022-09-30T15:38:37;3.45;;;2.30;;
13588;SDS011;6865;52.552;13.434;2022-09-30T15:41:05;3.58;;;2.10;;
13588;SDS011;6865;52.552;13.434;2022-09-30T15:43:37;2.05;;;1.70;;
13588;SDS011;6865;52.552;13.434;2022-09-30T15:46:24;3.75;;;2.10;;
13588;SDS011;6865;52.552;13.434;2022-09-30T15:48:57;2.40;;;1.80;;
13588;SDS011;6865;52.552;13.434;2022-09-30T15:51:27;3.08;;;1.70;;
13588;SDS011;6865;52.552;13.434;2022-09-30T15:54:00;2.95;;;1.60;;
13588;SDS011;6865;52.552;13.434;2022-09-30T15:56:40;2.75;;;2.17;;
13588;SDS011;6865;52.552;13.434;2022-09-30T15:59:09;3.05;;;1.92;;
13588;SDS011;6865;52.552;13.434;2022-09-30T16:01:38;3.08;;;2.10;;
13588;SDS011;6865;52.552;13.434;2022-09-30T16:06:49;2.40;;;1.50;;
13588;SDS011;6865;52.552;13.434;2022-09-30T16:09:28;1.95;;;1.67;;
13588;SDS011;6865;52.552;13.434;2022-09-30T16:12:02;2.38;;;1.70;;
13588;SDS011;6865;52.552;13.434;2022-09-30T16:14:38;4.50;;;1.80;;
13588;SDS011;6865;52.552;13.434;2022-09-30T16:17:26;4.07;;;2.50;;
13588;SDS011;6865;52.552;13.434;2022-09-30T16:19:58;3.55;;;2.25;;
13588;SDS011;6865;52.552;13.434;2022-09-30T16:25:34;2.90;;;2.23;;
13588;SDS011;6865;52.552;13.434;2022-09-30T16:28:18;3.45;;;2.65;;
13588;SDS011;6865;52.552;13.434;2022-09-30T16:30:46;4.87;;;2.27;;
13588;SDS011;6865;52.552;13.434;2022-09-30T16:33:15;3.30;;;2.50;;
13588;SDS011;6865;52.552;13.434;2022-09-30T16:35:43;4.93;;;2.70;;
13588;SDS011;6865;52.552;13.434;2022-09-30T16:38:13;2.87;;;2.10;;
13588;SDS011;6865;52.552;13.434;2022-09-30T16:40:41;3.57;;;2.33;;
13588;SDS011;6865;52.552;13.434;2022-09-30T16:43:07;3.47;;;2.53;;
13588;SDS011;6865;52.552;13.434;2022-09-30T16:45:37;5.90;;;2.85;;
13588;SDS011;6865;52.552;13.434;2022-09-30T16:48:16;3.75;;;2.75;;
13588;SDS011;6865;52.552;13.434;2022-09-30T16:50:53;4.63;;;2.90;;
13588;SDS011;6865;52.552;13.434;2022-09-30T16:53:27;4.50;;;2.80;;
13588;SDS011;6865;52.552;13.434;2022-09-30T16:55:53;4.35;;;3.22;;
13588;SDS011;6865;52.552;13.434;2022-09-30T16:58:20;3.85;;;3.10;;
13588;SDS011;6865;52.552;13.434;2022-09-30T17:00:47;4.70;;;3.40;;
13588;SDS011;6865;52.552;13.434;2022-09-30T17:03:14;6.10;;;3.73;;
13588;SDS011;6865;52.552;13.434;2022-09-30T17:05:43;5.63;;;3.70;;
13588;SDS011;6865;52.552;13.434;2022-09-30T17:08:11;5.73;;;3.40;;
13588;SDS011;6865;52.552;13.434;2022-09-30T17:10:40;4.97;;;3.50;;
13588;SDS011;6865;52.552;13.434;2022-09-30T17:13:08;6.17;;;3.70;;
13588;SDS011;6865;52.552;13.434;2022-09-30T17:15:35;6.63;;;3.87;;
13588;SDS011;6865;52.552;13.434;2022-09-30T17:18:06;6.17;;;3.40;;